sensor_id;sensor_type;location;lat;lon;timestamp;P1;durP1;ratioP1;P2;durP2;ratioP2
11203;SDS011;5659;49.408;11.116;2023-04-06T00:01:09;19.03;;;10.23;;
11203;SDS011;5659;49.408;11.116;2023-04-06T00:03:35;18.40;;;10.03;;
11203;SDS011;5659;49.408;11.116;2023-04-06T00:06:02;16.17;;;9.77;;
11203;SDS011;5659;49.408;11.116;2023-04-06T00:08:28;16.43;;;10.17;;
11203;SDS011;5659;49.408;11.116;2023-04-06T00:10:54;18.77;;;10.00;;
11203;SDS011;5659;49.408;11.116;2023-04-06T00:13:20;19.37;;;9.93;;
11203;SDS011;5659;49.408;11.116;2023-04-06T00:15:46;14.93;;;9.73;;
11203;SDS011;5659;49.408;11.116;2023-04-06T00:18:12;16.90;;;9.80;;
11203;SDS011;5659;49.408;11.116;2023-04-06T00:20:38;19.07;;;10.50;;
11203;SDS011;5659;49.408;11.116;2023-04-06T00:23:04;18.33;;;9.83;;
11203;SDS011;5659;49.408;11.116;2023-04-06T00:25:30;17.53;;;9.87;;
11203;SDS011;5659;49.408;11.116;2023-04-06T00:27:56;20.67;;;9.93;;
11203;SDS011;5659;49.408;11.116;2023-04-06T00:30:22;16.73;;;10.80;;
11203;SDS011;5659;49.408;11.116;2023-04-06T00:32:48;16.40;;;9.60;;
11203;SDS011;5659;49.408;11.116;2023-04-06T00:35:14;14.87;;;9.47;;
11203;SDS011;5659;49.408;11.116;2023-04-06T00:37:40;17.63;;;10.07;;
11203;SDS011;5659;49.408;11.116;2023-04-06T00:40:06;14.43;;;9.63;;
11203;SDS011;5659;49.408;11.116;2023-04-06T00:42:33;15.97;;;10.17;;
11203;SDS011;5659;49.408;11.116;2023-04-06T00:44:59;16.70;;;9.87;;
11203;SDS011;5659;49.408;11.116;2023-04-06T00:47:26;17.17;;;9.90;;
11203;SDS011;5659;49.408;11.116;2023-04-06T00:49:53;14.17;;;9.70;;
11203;SDS011;5659;49.408;11.116;2023-04-06T00:52:19;16.43;;;9.60;;
11203;SDS011;5659;49.408;11.116;2023-04-06T00:54:45;18.87;;;9.47;;
11203;SDS011;5659;49.408;11.116;2023-04-06T00:57:11;14.70;;;8.97;;
11203;SDS011;5659;49.408;11.116;2023-04-06T00:59:38;13.80;;;9.23;;
11203;SDS011;5659;49.408;11.116;2023-04-06T01:02:04;17.13;;;9.83;;
11203;SDS011;5659;49.408;11.116;2023-04-06T01:04:31;15.23;;;9.17;;
11203;SDS011;5659;49.408;11.116;2023-04-06T01:06:57;16.10;;;8.83;;
11203;SDS011;5659;49.408;11.116;2023-04-06T01:09:23;17.77;;;9.73;;
11203;SDS011;5659;49.408;11.116;2023-04-06T01:11:49;15.37;;;8.20;;
11203;SDS011;5659;49.408;11.116;2023-04-06T01:14:15;17.57;;;9.00;;
11203;SDS011;5659;49.408;11.116;2023-04-06T01:16:41;15.33;;;8.47;;
11203;SDS011;5659;49.408;11.116;2023-04-06T01:19:08;12.60;;;8.43;;
11203;SDS011;5659;49.408;11.116;2023-04-06T01:21:34;13.57;;;8.90;;
11203;SDS011;5659;49.408;11.116;2023-04-06T01:24:00;14.80;;;8.57;;
11203;SDS011;5659;49.408;11.116;2023-04-06T01:26:26;14.60;;;9.60;;
11203;SDS011;5659;49.408;11.116;2023-04-06T01:28:54;14.00;;;9.00;;
11203;SDS011;5659;49.408;11.116;2023-04-06T01:31:20;13.60;;;8.73;;
11203;SDS011;5659;49.408;11.116;2023-04-06T01:33:46;14.07;;;8.70;;
11203;SDS011;5659;49.408;11.116;2023-04-06T01:36:12;15.27;;;8.53;;
11203;SDS011;5659;49.408;11.116;2023-04-06T01:38:38;13.27;;;8.87;;
11203;SDS011;5659;49.408;11.116;2023-04-06T01:41:04;19.00;;;9.60;;
11203;SDS011;5659;49.408;11.116;2023-04-06T01:43:30;13.20;;;9.10;;
11203;SDS011;5659;49.408;11.116;2023-04-06T01:45:56;16.10;;;9.60;;
11203;SDS011;5659;49.408;11.116;2023-04-06T01:48:23;16.07;;;9.00;;
11203;SDS011;5659;49.408;11.116;2023-04-06T01:50:49;15.30;;;8.87;;
11203;SDS011;5659;49.408;11.116;2023-04-06T01:53:14;14.77;;;9.30;;
11203;SDS011;5659;49.408;11.116;2023-04-06T01:55:41;12.37;;;9.03;;
11203;SDS011;5659;49.408;11.116;2023-04-06T01:58:07;14.87;;;9.00;;
11203;SDS011;5659;49.408;11.116;2023-04-06T02:00:33;14.17;;;9.97;;
11203;SDS011;5659;49.408;11.116;2023-04-06T02:02:59;15.83;;;9.07;;
11203;SDS011;5659;49.408;11.116;2023-04-06T02:05:25;17.07;;;9.97;;
11203;SDS011;5659;49.408;11.116;2023-04-06T02:07:51;16.83;;;9.40;;
11203;SDS011;5659;49.408;11.116;2023-04-06T02:10:17;12.73;;;8.93;;
11203;SDS011;5659;49.408;11.116;2023-04-06T02:12:43;14.90;;;9.20;;
11203;SDS011;5659;49.408;11.116;2023-04-06T02:15:09;17.77;;;9.60;;
11203;SDS011;5659;49.408;11.116;2023-04-06T02:17:38;17.70;;;10.27;;
11203;SDS011;5659;49.408;11.116;2023-04-06T02:20:04;13.93;;;9.07;;
11203;SDS011;5659;49.408;11.116;2023-04-06T02:22:30;16.23;;;9.63;;
11203;SDS011;5659;49.408;11.116;2023-04-06T02:24:56;20.07;;;9.53;;
11203;SDS011;5659;49.408;11.116;2023-04-06T02:27:22;15.20;;;9.30;;
11203;SDS011;5659;49.408;11.116;2023-04-06T02:29:48;15.27;;;9.93;;
11203;SDS011;5659;49.408;11.116;2023-04-06T02:32:15;14.63;;;9.30;;
11203;SDS011;5659;49.408;11.116;2023-04-06T02:34:41;15.77;;;10.17;;
11203;SDS011;5659;49.408;11.116;2023-04-06T02:37:07;16.50;;;10.13;;
11203;SDS011;5659;49.408;11.116;2023-04-06T02:39:32;13.70;;;9.87;;
11203;SDS011;5659;49.408;11.116;2023-04-06T02:41:58;17.53;;;9.60;;
11203;SDS011;5659;49.408;11.116;2023-04-06T02:44:24;22.20;;;10.00;;
11203;SDS011;5659;49.408;11.116;2023-04-06T02:46:50;17.23;;;10.03;;
11203;SDS011;5659;49.408;11.116;2023-04-06T02:49:16;17.13;;;10.27;;
11203;SDS011;5659;49.408;11.116;2023-04-06T02:51:42;17.37;;;10.07;;
11203;SDS011;5659;49.408;11.116;2023-04-06T02:54:08;14.10;;;9.73;;
11203;SDS011;5659;49.408;11.116;2023-04-06T02:56:35;17.97;;;10.13;;
11203;SDS011;5659;49.408;11.116;2023-04-06T02:59:01;17.90;;;9.33;;
11203;SDS011;5659;49.408;11.116;2023-04-06T03:01:27;16.37;;;9.17;;
11203;SDS011;5659;49.408;11.116;2023-04-06T03:03:52;16.37;;;9.57;;
11203;SDS011;5659;49.408;11.116;2023-04-06T03:06:18;17.87;;;10.00;;
11203;SDS011;5659;49.408;11.116;2023-04-06T03:08:44;14.60;;;9.20;;
11203;SDS011;5659;49.408;11.116;2023-04-06T03:11:12;16.23;;;9.67;;
11203;SDS011;5659;49.408;11.116;2023-04-06T03:13:38;16.10;;;8.97;;
11203;SDS011;5659;49.408;11.116;2023-04-06T03:16:04;12.10;;;9.10;;
11203;SDS011;5659;49.408;11.116;2023-04-06T03:18:31;13.17;;;9.47;;
11203;SDS011;5659;49.408;11.116;2023-04-06T03:20:57;12.97;;;9.30;;
11203;SDS011;5659;49.408;11.116;2023-04-06T03:23:25;15.77;;;9.47;;
11203;SDS011;5659;49.408;11.116;2023-04-06T03:25:51;12.50;;;9.83;;
11203;SDS011;5659;49.408;11.116;2023-04-06T03:28:17;13.67;;;9.77;;
11203;SDS011;5659;49.408;11.116;2023-04-06T03:30:43;16.30;;;9.47;;
11203;SDS011;5659;49.408;11.116;2023-04-06T03:33:09;15.43;;;9.17;;
11203;SDS011;5659;49.408;11.116;2023-04-06T03:35:35;15.70;;;9.93;;
11203;SDS011;5659;49.408;11.116;2023-04-06T03:38:02;15.73;;;9.67;;
11203;SDS011;5659;49.408;11.116;2023-04-06T03:40:28;14.67;;;9.47;;
11203;SDS011;5659;49.408;11.116;2023-04-06T03:42:54;13.43;;;9.17;;
11203;SDS011;5659;49.408;11.116;2023-04-06T03:45:20;15.53;;;9.93;;
11203;SDS011;5659;49.408;11.116;2023-04-06T03:47:46;14.63;;;8.83;;
11203;SDS011;5659;49.408;11.116;2023-04-06T03:50:12;15.90;;;9.97;;
11203;SDS011;5659;49.408;11.116;2023-04-06T03:52:38;12.20;;;9.10;;
11203;SDS011;5659;49.408;11.116;2023-04-06T03:55:04;13.13;;;8.80;;
11203;SDS011;5659;49.408;11.116;2023-04-06T03:57:30;11.40;;;8.80;;
11203;SDS011;5659;49.408;11.116;2023-04-06T03:59:56;15.00;;;9.17;;
11203;SDS011;5659;49.408;11.116;2023-04-06T04:02:22;15.37;;;9.00;;
11203;SDS011;5659;49.408;11.116;2023-04-06T04:04:48;16.07;;;9.87;;
11203;SDS011;5659;49.408;11.116;2023-04-06T04:07:14;14.97;;;9.50;;
11203;SDS011;5659;49.408;11.116;2023-04-06T04:09:40;18.20;;;10.67;;
11203;SDS011;5659;49.408;11.116;2023-04-06T04:12:06;13.27;;;9.07;;
11203;SDS011;5659;49.408;11.116;2023-04-06T04:14:32;13.43;;;9.47;;
11203;SDS011;5659;49.408;11.116;2023-04-06T04:16:58;14.83;;;9.47;;
11203;SDS011;5659;49.408;11.116;2023-04-06T04:19:24;14.73;;;9.77;;
11203;SDS011;5659;49.408;11.116;2023-04-06T04:21:50;14.83;;;9.63;;
11203;SDS011;5659;49.408;11.116;2023-04-06T04:24:16;13.47;;;9.30;;
11203;SDS011;5659;49.408;11.116;2023-04-06T04:26:42;14.33;;;9.50;;
11203;SDS011;5659;49.408;11.116;2023-04-06T04:29:09;14.17;;;8.90;;
11203;SDS011;5659;49.408;11.116;2023-04-06T04:31:35;16.97;;;10.33;;
11203;SDS011;5659;49.408;11.116;2023-04-06T04:34:01;13.63;;;8.63;;
11203;SDS011;5659;49.408;11.116;2023-04-06T04:36:27;15.27;;;9.07;;
11203;SDS011;5659;49.408;11.116;2023-04-06T04:38:53;19.33;;;10.10;;
11203;SDS011;5659;49.408;11.116;2023-04-06T04:41:19;17.73;;;9.40;;
11203;SDS011;5659;49.408;11.116;2023-04-06T04:43:45;23.90;;;10.27;;
11203;SDS011;5659;49.408;11.116;2023-04-06T04:46:11;14.97;;;9.73;;
11203;SDS011;5659;49.408;11.116;2023-04-06T04:48:37;13.17;;;9.53;;
11203;SDS011;5659;49.408;11.116;2023-04-06T04:51:04;14.63;;;9.60;;
11203;SDS011;5659;49.408;11.116;2023-04-06T04:53:30;13.87;;;9.50;;
11203;SDS011;5659;49.408;11.116;2023-04-06T04:55:56;17.73;;;10.07;;
11203;SDS011;5659;49.408;11.116;2023-04-06T04:58:22;17.30;;;9.23;;
11203;SDS011;5659;49.408;11.116;2023-04-06T05:00:48;20.43;;;10.30;;
11203;SDS011;5659;49.408;11.116;2023-04-06T05:03:19;20.10;;;9.87;;
11203;SDS011;5659;49.408;11.116;2023-04-06T05:05:45;19.13;;;10.23;;
11203;SDS011;5659;49.408;11.116;2023-04-06T05:08:11;12.63;;;9.00;;
11203;SDS011;5659;49.408;11.116;2023-04-06T05:10:37;15.63;;;9.63;;
11203;SDS011;5659;49.408;11.116;2023-04-06T05:13:03;14.80;;;9.73;;
11203;SDS011;5659;49.408;11.116;2023-04-06T05:15:29;13.13;;;8.47;;
11203;SDS011;5659;49.408;11.116;2023-04-06T05:17:56;20.20;;;10.37;;
11203;SDS011;5659;49.408;11.116;2023-04-06T05:20:22;22.27;;;10.27;;
11203;SDS011;5659;49.408;11.116;2023-04-06T05:22:48;25.00;;;11.17;;
11203;SDS011;5659;49.408;11.116;2023-04-06T05:25:14;23.30;;;12.87;;
11203;SDS011;5659;49.408;11.116;2023-04-06T05:27:40;26.77;;;12.80;;
11203;SDS011;5659;49.408;11.116;2023-04-06T05:30:06;32.03;;;13.70;;
11203;SDS011;5659;49.408;11.116;2023-04-06T05:32:33;29.40;;;14.50;;
11203;SDS011;5659;49.408;11.116;2023-04-06T05:34:59;30.17;;;14.87;;
11203;SDS011;5659;49.408;11.116;2023-04-06T05:37:25;26.93;;;14.47;;
11203;SDS011;5659;49.408;11.116;2023-04-06T05:39:51;25.13;;;14.20;;
11203;SDS011;5659;49.408;11.116;2023-04-06T05:42:17;24.27;;;13.60;;
11203;SDS011;5659;49.408;11.116;2023-04-06T05:44:43;31.13;;;12.43;;
11203;SDS011;5659;49.408;11.116;2023-04-06T05:47:09;33.43;;;12.40;;
11203;SDS011;5659;49.408;11.116;2023-04-06T05:49:35;26.93;;;13.93;;
11203;SDS011;5659;49.408;11.116;2023-04-06T05:52:01;26.00;;;11.57;;
11203;SDS011;5659;49.408;11.116;2023-04-06T05:54:27;18.53;;;10.20;;
11203;SDS011;5659;49.408;11.116;2023-04-06T05:56:53;21.67;;;10.63;;
11203;SDS011;5659;49.408;11.116;2023-04-06T05:59:19;19.30;;;10.33;;
11203;SDS011;5659;49.408;11.116;2023-04-06T06:01:45;20.70;;;9.50;;
11203;SDS011;5659;49.408;11.116;2023-04-06T06:04:11;16.23;;;10.37;;
11203;SDS011;5659;49.408;11.116;2023-04-06T06:06:37;16.37;;;9.13;;
11203;SDS011;5659;49.408;11.116;2023-04-06T06:09:03;19.63;;;9.70;;
11203;SDS011;5659;49.408;11.116;2023-04-06T06:11:33;17.87;;;9.40;;
11203;SDS011;5659;49.408;11.116;2023-04-06T06:13:59;23.97;;;9.60;;
11203;SDS011;5659;49.408;11.116;2023-04-06T06:16:25;15.90;;;9.00;;
11203;SDS011;5659;49.408;11.116;2023-04-06T06:18:51;19.53;;;8.60;;
11203;SDS011;5659;49.408;11.116;2023-04-06T06:21:17;18.63;;;9.00;;
11203;SDS011;5659;49.408;11.116;2023-04-06T06:23:43;16.40;;;8.20;;
11203;SDS011;5659;49.408;11.116;2023-04-06T06:26:09;15.67;;;9.00;;
11203;SDS011;5659;49.408;11.116;2023-04-06T06:28:35;11.97;;;7.33;;
11203;SDS011;5659;49.408;11.116;2023-04-06T06:31:01;15.63;;;6.70;;
11203;SDS011;5659;49.408;11.116;2023-04-06T06:33:27;10.57;;;6.50;;
11203;SDS011;5659;49.408;11.116;2023-04-06T06:35:53;13.33;;;5.80;;
11203;SDS011;5659;49.408;11.116;2023-04-06T06:38:19;10.83;;;5.40;;
11203;SDS011;5659;49.408;11.116;2023-04-06T06:40:45;9.90;;;5.60;;
11203;SDS011;5659;49.408;11.116;2023-04-06T06:43:12;10.33;;;5.70;;
11203;SDS011;5659;49.408;11.116;2023-04-06T06:45:38;8.03;;;5.40;;
11203;SDS011;5659;49.408;11.116;2023-04-06T06:48:04;10.07;;;5.67;;
11203;SDS011;5659;49.408;11.116;2023-04-06T06:50:30;9.87;;;5.60;;
11203;SDS011;5659;49.408;11.116;2023-04-06T06:52:56;8.10;;;5.33;;
11203;SDS011;5659;49.408;11.116;2023-04-06T06:55:22;14.47;;;5.43;;
11203;SDS011;5659;49.408;11.116;2023-04-06T06:57:48;10.40;;;4.80;;
11203;SDS011;5659;49.408;11.116;2023-04-06T07:00:14;10.00;;;5.40;;
11203;SDS011;5659;49.408;11.116;2023-04-06T07:02:40;14.37;;;5.70;;
11203;SDS011;5659;49.408;11.116;2023-04-06T07:05:06;11.37;;;5.77;;
11203;SDS011;5659;49.408;11.116;2023-04-06T07:07:32;9.50;;;6.20;;
11203;SDS011;5659;49.408;11.116;2023-04-06T07:09:59;10.03;;;6.23;;
11203;SDS011;5659;49.408;11.116;2023-04-06T07:12:25;12.33;;;5.50;;
11203;SDS011;5659;49.408;11.116;2023-04-06T07:14:51;8.03;;;4.80;;
11203;SDS011;5659;49.408;11.116;2023-04-06T07:17:17;9.10;;;5.67;;
11203;SDS011;5659;49.408;11.116;2023-04-06T07:19:43;10.90;;;5.80;;
11203;SDS011;5659;49.408;11.116;2023-04-06T07:22:10;10.83;;;6.10;;
11203;SDS011;5659;49.408;11.116;2023-04-06T07:24:36;10.87;;;6.10;;
11203;SDS011;5659;49.408;11.116;2023-04-06T07:27:02;8.30;;;5.50;;
11203;SDS011;5659;49.408;11.116;2023-04-06T07:29:28;10.60;;;6.33;;
11203;SDS011;5659;49.408;11.116;2023-04-06T07:31:54;10.43;;;6.00;;
11203;SDS011;5659;49.408;11.116;2023-04-06T07:34:21;8.33;;;5.57;;
11203;SDS011;5659;49.408;11.116;2023-04-06T07:36:47;9.93;;;6.07;;
11203;SDS011;5659;49.408;11.116;2023-04-06T07:39:13;10.50;;;5.83;;
11203;SDS011;5659;49.408;11.116;2023-04-06T07:41:39;10.27;;;6.50;;
11203;SDS011;5659;49.408;11.116;2023-04-06T07:44:05;11.47;;;6.80;;
11203;SDS011;5659;49.408;11.116;2023-04-06T07:46:31;9.43;;;6.43;;
11203;SDS011;5659;49.408;11.116;2023-04-06T07:48:59;8.20;;;5.90;;
11203;SDS011;5659;49.408;11.116;2023-04-06T07:51:26;10.07;;;6.37;;
11203;SDS011;5659;49.408;11.116;2023-04-06T07:53:52;10.10;;;6.40;;
11203;SDS011;5659;49.408;11.116;2023-04-06T07:56:18;10.00;;;6.40;;
11203;SDS011;5659;49.408;11.116;2023-04-06T07:58:45;9.47;;;6.73;;
11203;SDS011;5659;49.408;11.116;2023-04-06T08:01:11;10.27;;;6.57;;
11203;SDS011;5659;49.408;11.116;2023-04-06T08:03:37;9.53;;;6.47;;
11203;SDS011;5659;49.408;11.116;2023-04-06T08:06:04;9.77;;;6.23;;
11203;SDS011;5659;49.408;11.116;2023-04-06T08:08:30;12.10;;;6.77;;
11203;SDS011;5659;49.408;11.116;2023-04-06T08:10:56;11.10;;;6.97;;
11203;SDS011;5659;49.408;11.116;2023-04-06T08:13:22;10.60;;;6.87;;
11203;SDS011;5659;49.408;11.116;2023-04-06T08:15:48;10.53;;;6.10;;
11203;SDS011;5659;49.408;11.116;2023-04-06T08:18:14;12.43;;;6.83;;
11203;SDS011;5659;49.408;11.116;2023-04-06T08:20:40;9.27;;;6.67;;
11203;SDS011;5659;49.408;11.116;2023-04-06T08:23:06;9.43;;;6.50;;
11203;SDS011;5659;49.408;11.116;2023-04-06T08:25:34;14.03;;;6.63;;
11203;SDS011;5659;49.408;11.116;2023-04-06T08:28:01;8.27;;;6.57;;
11203;SDS011;5659;49.408;11.116;2023-04-06T08:30:27;7.53;;;6.40;;
11203;SDS011;5659;49.408;11.116;2023-04-06T08:32:53;9.77;;;7.10;;
11203;SDS011;5659;49.408;11.116;2023-04-06T08:35:19;10.37;;;7.03;;
11203;SDS011;5659;49.408;11.116;2023-04-06T08:37:45;8.23;;;6.10;;
11203;SDS011;5659;49.408;11.116;2023-04-06T08:40:11;9.67;;;6.83;;
11203;SDS011;5659;49.408;11.116;2023-04-06T08:42:42;10.53;;;7.33;;
11203;SDS011;5659;49.408;11.116;2023-04-06T08:45:10;10.43;;;6.17;;
11203;SDS011;5659;49.408;11.116;2023-04-06T08:47:36;11.20;;;6.90;;
11203;SDS011;5659;49.408;11.116;2023-04-06T08:50:03;12.90;;;6.60;;
11203;SDS011;5659;49.408;11.116;2023-04-06T08:52:29;9.10;;;6.13;;
11203;SDS011;5659;49.408;11.116;2023-04-06T08:54:57;8.90;;;6.30;;
11203;SDS011;5659;49.408;11.116;2023-04-06T08:57:23;10.77;;;6.47;;
11203;SDS011;5659;49.408;11.116;2023-04-06T08:59:50;12.50;;;6.47;;
11203;SDS011;5659;49.408;11.116;2023-04-06T09:02:17;9.10;;;6.43;;
11203;SDS011;5659;49.408;11.116;2023-04-06T09:04:44;10.77;;;5.80;;
11203;SDS011;5659;49.408;11.116;2023-04-06T09:07:11;8.53;;;5.33;;
11203;SDS011;5659;49.408;11.116;2023-04-06T09:12:06;10.80;;;6.27;;
11203;SDS011;5659;49.408;11.116;2023-04-06T09:17:01;8.83;;;5.90;;
11203;SDS011;5659;49.408;11.116;2023-04-06T09:19:27;11.27;;;6.57;;
11203;SDS011;5659;49.408;11.116;2023-04-06T09:22:05;10.00;;;6.20;;
11203;SDS011;5659;49.408;11.116;2023-04-06T09:27:06;9.87;;;6.47;;
11203;SDS011;5659;49.408;11.116;2023-04-06T09:29:32;12.38;;;6.53;;
11203;SDS011;5659;49.408;11.116;2023-04-06T09:32:05;8.32;;;6.30;;
11203;SDS011;5659;49.408;11.116;2023-04-06T09:34:32;11.13;;;6.80;;
11203;SDS011;5659;49.408;11.116;2023-04-06T09:36:58;8.77;;;6.10;;
11203;SDS011;5659;49.408;11.116;2023-04-06T09:39:24;9.65;;;6.85;;
11203;SDS011;5659;49.408;11.116;2023-04-06T09:41:51;7.50;;;6.13;;
11203;SDS011;5659;49.408;11.116;2023-04-06T09:44:17;10.38;;;7.43;;
11203;SDS011;5659;49.408;11.116;2023-04-06T09:46:45;9.50;;;6.95;;
11203;SDS011;5659;49.408;11.116;2023-04-06T09:49:11;10.23;;;6.93;;
11203;SDS011;5659;49.408;11.116;2023-04-06T09:51:38;13.10;;;6.78;;
11203;SDS011;5659;49.408;11.116;2023-04-06T09:54:05;9.10;;;6.72;;
11203;SDS011;5659;49.408;11.116;2023-04-06T09:56:39;9.43;;;6.88;;
11203;SDS011;5659;49.408;11.116;2023-04-06T09:59:08;10.23;;;7.90;;
11203;SDS011;5659;49.408;11.116;2023-04-06T10:01:37;11.80;;;7.60;;
11203;SDS011;5659;49.408;11.116;2023-04-06T10:06:31;9.60;;;7.32;;
11203;SDS011;5659;49.408;11.116;2023-04-06T10:09:00;10.10;;;7.13;;
11203;SDS011;5659;49.408;11.116;2023-04-06T10:11:28;10.88;;;7.00;;
11203;SDS011;5659;49.408;11.116;2023-04-06T10:13:54;11.55;;;7.65;;
11203;SDS011;5659;49.408;11.116;2023-04-06T10:16:21;9.68;;;7.40;;
11203;SDS011;5659;49.408;11.116;2023-04-06T10:18:51;8.93;;;6.63;;
11203;SDS011;5659;49.408;11.116;2023-04-06T10:21:19;12.43;;;7.25;;
11203;SDS011;5659;49.408;11.116;2023-04-06T10:23:51;11.30;;;7.03;;
11203;SDS011;5659;49.408;11.116;2023-04-06T10:26:21;12.32;;;7.53;;
11203;SDS011;5659;49.408;11.116;2023-04-06T10:28:47;14.73;;;6.95;;
11203;SDS011;5659;49.408;11.116;2023-04-06T10:31:14;9.32;;;6.35;;
11203;SDS011;5659;49.408;11.116;2023-04-06T10:33:41;11.18;;;7.13;;
11203;SDS011;5659;49.408;11.116;2023-04-06T10:36:10;8.23;;;6.57;;
11203;SDS011;5659;49.408;11.116;2023-04-06T10:38:37;10.20;;;7.03;;
11203;SDS011;5659;49.408;11.116;2023-04-06T10:41:04;8.93;;;6.43;;
11203;SDS011;5659;49.408;11.116;2023-04-06T10:43:33;8.43;;;6.38;;
11203;SDS011;5659;49.408;11.116;2023-04-06T10:46:00;7.57;;;5.75;;
11203;SDS011;5659;49.408;11.116;2023-04-06T10:48:36;10.95;;;6.13;;
11203;SDS011;5659;49.408;11.116;2023-04-06T10:51:06;8.15;;;5.50;;
11203;SDS011;5659;49.408;11.116;2023-04-06T10:53:33;7.85;;;6.40;;
11203;SDS011;5659;49.408;11.116;2023-04-06T10:55:59;7.13;;;6.20;;
11203;SDS011;5659;49.408;11.116;2023-04-06T10:58:26;6.43;;;5.55;;
11203;SDS011;5659;49.408;11.116;2023-04-06T11:00:53;7.28;;;5.55;;
11203;SDS011;5659;49.408;11.116;2023-04-06T11:03:20;8.82;;;6.53;;
11203;SDS011;5659;49.408;11.116;2023-04-06T11:05:46;9.68;;;6.63;;
11203;SDS011;5659;49.408;11.116;2023-04-06T11:08:26;7.80;;;5.93;;
11203;SDS011;5659;49.408;11.116;2023-04-06T11:11:03;8.70;;;5.63;;
11203;SDS011;5659;49.408;11.116;2023-04-06T11:13:43;7.07;;;5.20;;
11203;SDS011;5659;49.408;11.116;2023-04-06T11:16:13;6.10;;;5.32;;
11203;SDS011;5659;49.408;11.116;2023-04-06T11:18:52;5.28;;;4.70;;
11203;SDS011;5659;49.408;11.116;2023-04-06T11:21:20;7.75;;;5.05;;
11203;SDS011;5659;49.408;11.116;2023-04-06T11:23:46;6.68;;;4.97;;
11203;SDS011;5659;49.408;11.116;2023-04-06T11:26:12;8.65;;;5.15;;
11203;SDS011;5659;49.408;11.116;2023-04-06T11:28:39;11.15;;;4.90;;
11203;SDS011;5659;49.408;11.116;2023-04-06T11:31:07;5.22;;;4.70;;
11203;SDS011;5659;49.408;11.116;2023-04-06T11:33:36;7.30;;;4.85;;
11203;SDS011;5659;49.408;11.116;2023-04-06T11:36:03;6.75;;;4.25;;
11203;SDS011;5659;49.408;11.116;2023-04-06T11:38:29;5.07;;;4.25;;
11203;SDS011;5659;49.408;11.116;2023-04-06T11:40:55;6.88;;;5.15;;
11203;SDS011;5659;49.408;11.116;2023-04-06T11:43:31;5.78;;;5.07;;
11203;SDS011;5659;49.408;11.116;2023-04-06T11:46:03;7.72;;;5.72;;
11203;SDS011;5659;49.408;11.116;2023-04-06T11:48:31;6.03;;;5.00;;
11203;SDS011;5659;49.408;11.116;2023-04-06T11:50:58;7.28;;;5.32;;
11203;SDS011;5659;49.408;11.116;2023-04-06T11:53:26;18.45;;;6.07;;
11203;SDS011;5659;49.408;11.116;2023-04-06T11:55:52;10.00;;;5.40;;
11203;SDS011;5659;49.408;11.116;2023-04-06T11:58:18;5.00;;;4.32;;
11203;SDS011;5659;49.408;11.116;2023-04-06T12:00:44;6.13;;;4.32;;
11203;SDS011;5659;49.408;11.116;2023-04-06T12:03:11;4.78;;;3.60;;
11203;SDS011;5659;49.408;11.116;2023-04-06T12:05:38;7.60;;;4.63;;
11203;SDS011;5659;49.408;11.116;2023-04-06T12:08:04;6.47;;;4.10;;
11203;SDS011;5659;49.408;11.116;2023-04-06T12:10:30;7.68;;;4.70;;
11203;SDS011;5659;49.408;11.116;2023-04-06T12:12:56;5.35;;;4.80;;
11203;SDS011;5659;49.408;11.116;2023-04-06T12:15:22;5.20;;;4.15;;
11203;SDS011;5659;49.408;11.116;2023-04-06T12:17:48;6.90;;;5.20;;
11203;SDS011;5659;49.408;11.116;2023-04-06T12:20:17;6.93;;;5.00;;
11203;SDS011;5659;49.408;11.116;2023-04-06T12:22:43;6.43;;;5.03;;
11203;SDS011;5659;49.408;11.116;2023-04-06T12:25:09;5.38;;;4.75;;
11203;SDS011;5659;49.408;11.116;2023-04-06T12:27:35;7.63;;;5.32;;
11203;SDS011;5659;49.408;11.116;2023-04-06T12:30:01;8.50;;;4.93;;
11203;SDS011;5659;49.408;11.116;2023-04-06T12:32:27;9.10;;;4.72;;
11203;SDS011;5659;49.408;11.116;2023-04-06T12:34:53;5.00;;;4.50;;
11203;SDS011;5659;49.408;11.116;2023-04-06T12:37:19;8.05;;;4.60;;
11203;SDS011;5659;49.408;11.116;2023-04-06T12:39:45;6.72;;;4.35;;
11203;SDS011;5659;49.408;11.116;2023-04-06T12:42:11;6.60;;;4.72;;
11203;SDS011;5659;49.408;11.116;2023-04-06T12:44:38;5.30;;;4.80;;
11203;SDS011;5659;49.408;11.116;2023-04-06T12:47:05;6.38;;;5.35;;
11203;SDS011;5659;49.408;11.116;2023-04-06T12:49:32;5.78;;;4.35;;
11203;SDS011;5659;49.408;11.116;2023-04-06T12:51:58;5.53;;;4.90;;
11203;SDS011;5659;49.408;11.116;2023-04-06T12:54:24;7.28;;;4.82;;
11203;SDS011;5659;49.408;11.116;2023-04-06T12:56:51;8.20;;;4.78;;
11203;SDS011;5659;49.408;11.116;2023-04-06T12:59:17;6.28;;;4.38;;
11203;SDS011;5659;49.408;11.116;2023-04-06T13:01:43;6.85;;;4.80;;
11203;SDS011;5659;49.408;11.116;2023-04-06T13:04:09;7.28;;;4.70;;
11203;SDS011;5659;49.408;11.116;2023-04-06T13:06:35;6.38;;;4.97;;
11203;SDS011;5659;49.408;11.116;2023-04-06T13:09:01;5.30;;;4.68;;
11203;SDS011;5659;49.408;11.116;2023-04-06T13:11:29;7.43;;;5.30;;
11203;SDS011;5659;49.408;11.116;2023-04-06T13:13:55;7.07;;;4.95;;
11203;SDS011;5659;49.408;11.116;2023-04-06T13:16:21;5.70;;;4.47;;
11203;SDS011;5659;49.408;11.116;2023-04-06T13:18:47;8.13;;;5.63;;
11203;SDS011;5659;49.408;11.116;2023-04-06T13:21:14;6.50;;;5.40;;
11203;SDS011;5659;49.408;11.116;2023-04-06T13:23:41;6.95;;;5.28;;
11203;SDS011;5659;49.408;11.116;2023-04-06T13:26:07;5.47;;;4.85;;
11203;SDS011;5659;49.408;11.116;2023-04-06T13:28:34;7.50;;;5.10;;
11203;SDS011;5659;49.408;11.116;2023-04-06T13:31:01;9.05;;;5.50;;
11203;SDS011;5659;49.408;11.116;2023-04-06T13:33:27;5.68;;;4.93;;
11203;SDS011;5659;49.408;11.116;2023-04-06T13:35:53;5.80;;;5.18;;
11203;SDS011;5659;49.408;11.116;2023-04-06T13:38:19;7.35;;;5.18;;
11203;SDS011;5659;49.408;11.116;2023-04-06T13:40:45;6.15;;;5.45;;
11203;SDS011;5659;49.408;11.116;2023-04-06T13:43:11;7.30;;;5.60;;
11203;SDS011;5659;49.408;11.116;2023-04-06T13:45:38;6.50;;;5.30;;
11203;SDS011;5659;49.408;11.116;2023-04-06T13:48:04;5.50;;;4.80;;
11203;SDS011;5659;49.408;11.116;2023-04-06T13:50:30;5.43;;;4.80;;
11203;SDS011;5659;49.408;11.116;2023-04-06T13:52:56;6.82;;;5.68;;
11203;SDS011;5659;49.408;11.116;2023-04-06T13:55:22;10.23;;;5.00;;
11203;SDS011;5659;49.408;11.116;2023-04-06T13:57:49;5.47;;;4.88;;
11203;SDS011;5659;49.408;11.116;2023-04-06T14:00:15;8.27;;;5.18;;
11203;SDS011;5659;49.408;11.116;2023-04-06T14:02:42;8.30;;;5.28;;
11203;SDS011;5659;49.408;11.116;2023-04-06T14:05:08;7.78;;;5.72;;
11203;SDS011;5659;49.408;11.116;2023-04-06T14:07:34;6.55;;;5.85;;
11203;SDS011;5659;49.408;11.116;2023-04-06T14:10:01;7.72;;;5.70;;
11203;SDS011;5659;49.408;11.116;2023-04-06T14:12:27;8.40;;;6.05;;
11203;SDS011;5659;49.408;11.116;2023-04-06T14:14:54;7.00;;;6.07;;
11203;SDS011;5659;49.408;11.116;2023-04-06T14:17:20;7.32;;;5.40;;
11203;SDS011;5659;49.408;11.116;2023-04-06T14:19:46;6.50;;;5.78;;
11203;SDS011;5659;49.408;11.116;2023-04-06T14:22:12;8.73;;;5.55;;
11203;SDS011;5659;49.408;11.116;2023-04-06T14:24:38;7.93;;;5.63;;
11203;SDS011;5659;49.408;11.116;2023-04-06T14:27:04;7.10;;;5.88;;
11203;SDS011;5659;49.408;11.116;2023-04-06T14:29:30;6.75;;;5.80;;
11203;SDS011;5659;49.408;11.116;2023-04-06T14:31:56;6.28;;;5.60;;
11203;SDS011;5659;49.408;11.116;2023-04-06T14:34:27;7.07;;;5.20;;
11203;SDS011;5659;49.408;11.116;2023-04-06T14:36:54;7.50;;;5.68;;
11203;SDS011;5659;49.408;11.116;2023-04-06T14:39:20;6.13;;;5.50;;
11203;SDS011;5659;49.408;11.116;2023-04-06T14:41:46;7.38;;;6.05;;
11203;SDS011;5659;49.408;11.116;2023-04-06T14:44:13;12.13;;;7.07;;